Terminal Aerodrome Forecast
Issued by NWS Omaha/Valley, NE

Home | Current Version | Previous Version | Graphics & Text | Print | Product List | Glossary On
Versions: 1 2 3 4 5 6 7 8 9 10 11 12 13 14 15 16 17 18 19 20 21 22 23 24 25 26 27 28 29 30 31 32 33 34 35 36 37 38 39 40
000
FTUS43 KOAX 251131
TAFOFK
TAF
KOFK 251131Z 2512/2612 00000KT 1/4SM FG VV002
     FM251300 19004KT 4SM BR OVC015
      TEMPO 2513/2516 1/2SM -DZ FG BKN002 OVC015
     FM251600 18007KT P6SM OVC025
     FM251900 19010KT P6SM OVC035 PROB30 2521/2603 5SM -TSRA
      OVC020CB=

USA.gov is the U.S. government's official web portal to all federal, state and local government web resources and services.